createdAt,value
2023-02-22T00:00:29.544Z,6.52
2023-02-22T00:01:43.189Z,6.52
2023-02-22T00:02:46.028Z,6.52
2023-02-22T00:03:52.074Z,6.49
2023-02-22T00:04:54.267Z,6.50
2023-02-22T00:05:58.790Z,6.52
2023-02-22T00:07:01.569Z,6.52
2023-02-22T00:08:03.393Z,6.52
2023-02-22T00:09:05.279Z,6.48
2023-02-22T00:10:13.847Z,6.44
2023-02-22T00:11:17.553Z,6.34
2023-02-22T00:12:20.860Z,6.35
2023-02-22T00:13:25.582Z,6.37
2023-02-22T00:14:27.773Z,6.37
2023-02-22T00:15:29.754Z,6.41
2023-02-22T00:16:31.977Z,6.44
2023-02-22T00:17:34.382Z,6.44
2023-02-22T00:18:36.189Z,6.44
2023-02-22T00:19:38.775Z,6.42
2023-02-22T00:20:41.151Z,6.40
2023-02-22T00:21:45.111Z,6.39
2023-02-22T00:22:47.978Z,6.39
2023-02-22T00:23:50.682Z,6.38
2023-02-22T00:24:52.511Z,6.36
2023-02-22T00:25:54.859Z,6.33
2023-02-22T00:26:56.737Z,6.31
2023-02-22T00:27:58.546Z,6.31
2023-02-22T00:29:00.357Z,6.29
2023-02-22T00:30:02.790Z,6.21
2023-02-22T00:31:06.907Z,6.20
2023-02-22T00:32:08.850Z,6.22
2023-02-22T00:33:12.156Z,6.23
2023-02-22T00:34:14.624Z,6.16
2023-02-22T00:35:17.946Z,6.07
2023-02-22T00:36:19.782Z,6.05
2023-02-22T00:37:22.375Z,6.02
2023-02-22T00:38:24.368Z,6.01
2023-02-22T00:39:26.556Z,6.02
2023-02-22T00:40:32.968Z,5.99
2023-02-22T00:41:34.923Z,5.93
2023-02-22T00:42:37.201Z,5.92
2023-02-22T00:43:39.159Z,5.90
2023-02-22T00:44:40.988Z,5.89
2023-02-22T00:45:43.037Z,5.89
2023-02-22T00:46:45.029Z,5.86
2023-02-22T00:47:47.174Z,5.86
2023-02-22T00:48:48.985Z,5.86
2023-02-22T00:49:50.807Z,5.86
2023-02-22T00:50:55.893Z,5.85
2023-02-22T00:51:57.768Z,5.80
2023-02-22T00:53:00.743Z,5.78
2023-02-22T00:54:02.641Z,5.81
2023-02-22T00:55:06.345Z,5.85
2023-02-22T00:56:08.178Z,5.84
2023-02-22T00:57:10.023Z,5.85
2023-02-22T00:58:13.194Z,5.78
2023-02-22T00:59:15.075Z,5.74
2023-02-22T01:00:27.330Z,5.74
2023-02-22T01:01:29.231Z,5.70
2023-02-22T01:02:31.144Z,5.70
2023-02-22T01:03:33.103Z,5.71
2023-02-22T01:04:35.237Z,5.74
2023-02-22T01:05:38.578Z,5.75
2023-02-22T01:06:40.653Z,5.77
2023-02-22T01:07:42.785Z,5.77
2023-02-22T01:08:46.008Z,5.69
2023-02-22T01:09:47.858Z,5.70
2023-02-22T01:10:49.940Z,5.72
2023-02-22T01:11:58.497Z,5.74
2023-02-22T01:13:01.012Z,5.76
2023-02-22T01:14:02.996Z,5.71
2023-02-22T01:15:06.123Z,5.58
2023-02-22T01:16:11.259Z,5.55
2023-02-22T01:17:13.129Z,5.50
2023-02-22T01:18:17.509Z,5.50
2023-02-22T01:19:19.380Z,5.52
2023-02-22T01:20:26.342Z,5.56
2023-02-22T01:21:28.376Z,5.59
2023-02-22T01:22:30.253Z,5.57
2023-02-22T01:23:32.191Z,5.54
2023-02-22T01:24:34.060Z,5.39
2023-02-22T01:25:36.188Z,5.34
2023-02-22T01:26:38.295Z,5.37
2023-02-22T01:27:40.204Z,5.39
2023-02-22T01:28:42.063Z,5.40
2023-02-22T01:29:44.335Z,5.40
2023-02-22T01:30:46.413Z,5.45
2023-02-22T01:31:55.882Z,5.47
2023-02-22T01:32:58.323Z,5.48
2023-02-22T01:34:00.154Z,5.50
2023-02-22T01:35:05.296Z,5.48
2023-02-22T01:36:11.664Z,5.37
2023-02-22T01:37:13.521Z,5.33
2023-02-22T01:38:15.396Z,5.35
2023-02-22T01:39:18.136Z,5.35
2023-02-22T01:40:21.975Z,5.37
2023-02-22T01:41:23.893Z,5.37
2023-02-22T01:42:26.930Z,5.27
2023-02-22T01:43:32.676Z,5.27
2023-02-22T01:44:38.444Z,5.24
2023-02-22T01:45:45.636Z,5.19
2023-02-22T01:46:47.638Z,5.24
2023-02-22T01:47:49.496Z,5.20
2023-02-22T01:48:54.370Z,5.20
2023-02-22T01:49:57.207Z,5.22
2023-02-22T01:51:37.869Z,5.27
2023-02-22T01:52:39.821Z,5.30
2023-02-22T01:54:06.702Z,5.33
2023-02-22T01:55:08.530Z,5.29
2023-02-22T01:56:10.931Z,5.29
2023-02-22T01:57:16.419Z,5.28
2023-02-22T01:58:19.076Z,5.20
2023-02-22T01:59:22.285Z,5.00
2023-02-22T02:00:27.806Z,4.96
2023-02-22T02:01:30.284Z,5.01
2023-02-22T02:02:32.096Z,5.07
2023-02-22T02:03:35.945Z,5.11
2023-02-22T02:04:38.099Z,5.14
2023-02-22T02:05:40.048Z,5.16
2023-02-22T02:06:42.935Z,5.18
2023-02-22T02:07:46.859Z,5.18
2023-02-22T02:08:53.361Z,5.16
2023-02-22T02:09:59.675Z,5.16
2023-02-22T02:11:02.272Z,5.18
2023-02-22T02:12:06.797Z,5.15
2023-02-22T02:13:08.865Z,5.13
2023-02-22T02:14:11.672Z,5.13
2023-02-22T02:15:29.874Z,5.14
2023-02-22T02:16:43.264Z,5.17
2023-02-22T02:17:45.431Z,5.17
2023-02-22T02:18:47.273Z,5.17
2023-02-22T02:19:59.712Z,5.18
2023-02-22T02:21:27.592Z,5.18
2023-02-22T02:22:52.490Z,5.18
2023-02-22T02:24:09.375Z,5.07
2023-02-22T02:25:18.435Z,5.07
2023-02-22T02:26:32.765Z,5.06
2023-02-22T02:27:46.906Z,5.06
2023-02-22T02:29:07.335Z,5.06
2023-02-22T02:30:09.196Z,5.07
2023-02-22T02:31:22.164Z,5.08
2023-02-22T02:32:30.765Z,5.07
2023-02-22T02:33:35.099Z,5.06
2023-02-22T02:34:39.955Z,5.04
2023-02-22T02:35:44.751Z,5.04
2023-02-22T02:36:55.014Z,5.03
2023-02-22T02:38:02.643Z,5.02
2023-02-22T02:39:11.660Z,4.99
2023-02-22T02:40:22.877Z,4.89
2023-02-22T02:41:27.390Z,4.76
2023-02-22T02:42:33.608Z,4.75
2023-02-22T02:43:45.373Z,4.78
2023-02-22T02:44:49.725Z,4.74
2023-02-22T02:46:13.505Z,4.70
2023-02-22T02:47:19.543Z,4.70
2023-02-22T02:48:24.001Z,4.62
2023-02-22T02:49:29.530Z,4.63
2023-02-22T02:50:37.200Z,4.67
2023-02-22T02:51:42.281Z,4.72
2023-02-22T02:52:45.807Z,4.76
2023-02-22T02:53:48.902Z,4.76
2023-02-22T02:54:51.793Z,4.75
2023-02-22T02:55:53.635Z,4.72
2023-02-22T02:56:56.597Z,4.74
2023-02-22T02:57:59.772Z,4.75
2023-02-22T02:59:01.667Z,4.75
2023-02-22T03:00:22.572Z,4.67
2023-02-22T03:01:50.630Z,4.54
2023-02-22T03:02:59.885Z,4.50
2023-02-22T03:04:12.753Z,4.39
2023-02-22T03:05:36.780Z,4.34
2023-02-22T03:06:56.020Z,4.36
2023-02-22T03:07:57.872Z,4.41
2023-02-22T03:09:14.321Z,4.43
2023-02-22T03:10:16.195Z,4.48
2023-02-22T03:11:22.845Z,4.49
2023-02-22T03:12:37.330Z,4.38
2023-02-22T03:13:55.984Z,4.35
2023-02-22T03:15:01.626Z,4.40
2023-02-22T03:16:12.522Z,4.44
2023-02-22T03:17:22.508Z,4.46
2023-02-22T03:18:43.217Z,4.47
2023-02-22T03:19:52.046Z,4.47
2023-02-22T03:20:59.788Z,4.44
2023-02-22T03:22:01.624Z,4.42
2023-02-22T03:23:35.806Z,4.43
2023-02-22T03:24:53.481Z,4.44
2023-02-22T03:25:58.917Z,4.45
2023-02-22T03:27:09.644Z,4.43
2023-02-22T03:28:13.863Z,4.39
2023-02-22T03:29:18.479Z,4.39
2023-02-22T03:30:26.923Z,4.43
2023-02-22T03:31:31.678Z,4.45
2023-02-22T03:32:36.683Z,4.48
2023-02-22T03:33:38.515Z,4.49
2023-02-22T03:34:46.193Z,4.49
2023-02-22T03:35:57.188Z,4.48
2023-02-22T03:37:14.107Z,4.50
2023-02-22T03:38:17.583Z,4.50
2023-02-22T03:39:20.706Z,4.50
2023-02-22T03:40:34.479Z,4.44
2023-02-22T03:41:40.124Z,4.38
2023-02-22T03:42:50.332Z,4.35
2023-02-22T03:44:12.411Z,4.35
2023-02-22T03:45:15.998Z,4.30
2023-02-22T03:46:19.651Z,4.30
2023-02-22T03:47:23.588Z,4.32
2023-02-22T03:48:39.965Z,4.35
2023-02-22T03:49:56.655Z,4.35
2023-02-22T03:50:58.763Z,4.37
2023-02-22T03:52:01.546Z,4.37
2023-02-22T03:53:03.968Z,4.39
2023-02-22T03:54:06.665Z,4.40
2023-02-22T03:55:11.800Z,4.41
2023-02-22T03:56:36.260Z,4.41
2023-02-22T03:57:39.754Z,4.37
2023-02-22T03:58:44.488Z,4.34
2023-02-22T03:59:46.548Z,4.31
2023-02-22T04:00:53.469Z,4.31
2023-02-22T04:01:56.193Z,4.28
2023-02-22T04:02:59.778Z,4.27
2023-02-22T04:04:01.692Z,4.28
2023-02-22T04:05:03.743Z,4.27
2023-02-22T04:06:05.725Z,4.25
2023-02-22T04:07:07.651Z,4.28
2023-02-22T04:08:09.488Z,4.30
2023-02-22T04:09:11.440Z,4.33
2023-02-22T04:10:14.343Z,4.35
2023-02-22T04:11:16.369Z,4.34
2023-02-22T04:12:18.615Z,4.35
2023-02-22T04:13:20.520Z,4.34
2023-02-22T04:14:23.850Z,4.33
2023-02-22T04:15:26.101Z,4.30
2023-02-22T04:16:28.261Z,4.29
2023-02-22T04:17:30.106Z,4.31
2023-02-22T04:18:31.962Z,4.32
2023-02-22T04:19:33.821Z,4.33
2023-02-22T04:20:35.658Z,4.34
2023-02-22T04:21:37.627Z,4.31
2023-02-22T04:22:40.168Z,4.16
2023-02-22T04:23:42.018Z,4.01
2023-02-22T04:24:43.871Z,3.95
2023-02-22T04:25:45.708Z,3.93
2023-02-22T04:26:47.636Z,3.97
2023-02-22T04:27:49.937Z,3.96
2023-02-22T04:28:51.883Z,3.95
2023-02-22T04:29:53.804Z,3.97
2023-02-22T04:30:55.736Z,4.03
2023-02-22T04:31:57.757Z,4.06
2023-02-22T04:32:59.741Z,4.09
2023-02-22T04:34:02.956Z,4.11
2023-02-22T04:35:05.306Z,4.14
2023-02-22T04:36:07.899Z,4.16
2023-02-22T04:37:10.804Z,4.12
2023-02-22T04:38:12.656Z,4.00
2023-02-22T04:39:14.644Z,3.99
2023-02-22T04:40:17.487Z,3.94
2023-02-22T04:41:19.550Z,3.88
2023-02-22T04:42:21.550Z,3.81
2023-02-22T04:43:23.343Z,3.77
2023-02-22T04:44:25.234Z,3.77
2023-02-22T04:45:27.187Z,3.79
2023-02-22T04:46:29.234Z,3.86
2023-02-22T04:47:31.217Z,3.89
2023-02-22T04:48:33.117Z,3.85
2023-02-22T04:49:36.009Z,3.87
2023-02-22T04:50:41.025Z,3.91
2023-02-22T04:51:43.000Z,3.94
2023-02-22T04:52:44.983Z,3.96
2023-02-22T04:53:47.006Z,3.96
2023-02-22T04:54:49.176Z,3.93
2023-02-22T04:55:51.084Z,3.94
2023-02-22T04:56:52.980Z,3.91
2023-02-22T04:57:55.354Z,3.86
2023-02-22T04:58:57.210Z,3.87
2023-02-22T04:59:59.179Z,3.87
2023-02-22T05:01:01.320Z,3.90
2023-02-22T05:02:03.329Z,3.93
2023-02-22T05:03:05.269Z,3.94
2023-02-22T05:04:07.661Z,3.92
2023-02-22T05:05:09.492Z,3.86
2023-02-22T05:06:12.681Z,3.86
2023-02-22T05:07:14.659Z,3.83
2023-02-22T05:08:16.482Z,3.81
2023-02-22T05:09:18.328Z,3.83
2023-02-22T05:10:20.303Z,3.81
2023-02-22T05:11:22.790Z,3.78
2023-02-22T05:12:27.212Z,3.83
2023-02-22T05:13:29.079Z,3.80
2023-02-22T05:14:30.918Z,3.78
2023-02-22T05:15:32.928Z,3.79
2023-02-22T05:16:35.005Z,3.83
2023-02-22T05:17:37.092Z,3.86
2023-02-22T05:18:38.845Z,3.88
2023-02-22T05:19:42.481Z,3.89
2023-02-22T05:20:44.378Z,3.91
2023-02-22T05:21:46.389Z,3.93
2023-02-22T05:22:48.263Z,3.92
2023-02-22T05:23:50.045Z,3.90
2023-02-22T05:24:54.728Z,3.78
2023-02-22T05:25:56.622Z,3.76
2023-02-22T05:26:58.700Z,3.80
2023-02-22T05:28:01.955Z,3.84
2023-02-22T05:29:03.890Z,3.85
2023-02-22T05:30:06.121Z,3.83
2023-02-22T05:31:08.911Z,3.83
2023-02-22T05:32:12.555Z,3.84
2023-02-22T05:33:14.470Z,3.81
2023-02-22T05:34:16.466Z,3.81
2023-02-22T05:35:18.924Z,3.83
2023-02-22T05:36:20.735Z,3.84
2023-02-22T05:37:22.689Z,3.84
2023-02-22T05:38:24.638Z,3.82
2023-02-22T05:39:26.595Z,3.84
2023-02-22T05:40:29.075Z,3.80
2023-02-22T05:41:30.940Z,3.77
2023-02-22T05:42:32.763Z,3.72
2023-02-22T05:43:34.678Z,3.72
2023-02-22T05:44:36.515Z,3.75
2023-02-22T05:45:38.529Z,3.79
2023-02-22T05:46:40.431Z,3.81
2023-02-22T05:47:42.455Z,3.76
2023-02-22T05:48:44.348Z,3.76
2023-02-22T05:49:46.184Z,3.72
2023-02-22T05:50:50.113Z,3.72
2023-02-22T05:51:52.025Z,3.75
2023-02-22T05:52:54.343Z,3.71
2023-02-22T05:53:56.296Z,3.65
2023-02-22T05:54:58.190Z,3.60
2023-02-22T05:56:00.431Z,3.57
2023-02-22T05:57:02.803Z,3.57
2023-02-22T05:58:06.177Z,3.53
2023-02-22T05:59:08.092Z,3.49
2023-02-22T06:00:10.770Z,3.51
2023-02-22T06:01:12.867Z,3.55
2023-02-22T06:02:14.811Z,3.62
2023-02-22T06:03:16.698Z,3.65
2023-02-22T06:04:18.536Z,3.57
2023-02-22T06:05:20.533Z,3.51
2023-02-22T06:06:22.677Z,3.55
2023-02-22T06:07:24.563Z,3.58
2023-02-22T06:08:26.482Z,3.65
2023-02-22T06:09:28.342Z,3.69
2023-02-22T06:10:30.284Z,3.71
2023-02-22T06:11:32.233Z,3.71
2023-02-22T06:12:34.103Z,3.67
2023-02-22T06:13:36.480Z,3.67
2023-02-22T06:14:38.473Z,3.69
2023-02-22T06:15:40.330Z,3.73
2023-02-22T06:16:42.139Z,3.76
2023-02-22T06:17:44.139Z,3.79
2023-02-22T06:18:46.072Z,3.81
2023-02-22T06:19:47.863Z,3.81
2023-02-22T06:20:49.756Z,3.81
2023-02-22T06:21:52.368Z,3.75
2023-02-22T06:22:55.412Z,3.68
2023-02-22T06:23:57.372Z,3.65
2023-02-22T06:24:59.268Z,3.63
2023-02-22T06:26:01.071Z,3.65
2023-02-22T06:27:02.895Z,3.68
2023-02-22T06:28:04.915Z,3.66
2023-02-22T06:29:06.905Z,3.67
2023-02-22T06:30:11.246Z,3.68
2023-02-22T06:31:14.325Z,3.69
2023-02-22T06:32:17.285Z,3.71
2023-02-22T06:33:19.200Z,3.74
2023-02-22T06:34:22.266Z,3.71
2023-02-22T06:35:24.067Z,3.68
2023-02-22T06:36:25.938Z,3.67
2023-02-22T06:37:27.793Z,3.71
2023-02-22T06:38:29.759Z,3.75
2023-02-22T06:39:31.626Z,3.73
2023-02-22T06:40:33.531Z,3.73
2023-02-22T06:41:37.848Z,3.78
2023-02-22T06:42:40.038Z,3.73
2023-02-22T06:43:41.995Z,3.67
2023-02-22T06:44:43.855Z,3.66
2023-02-22T06:45:45.739Z,3.64
2023-02-22T06:46:49.616Z,3.66
2023-02-22T06:47:51.488Z,3.66
2023-02-22T06:48:53.444Z,3.67
2023-02-22T06:49:55.793Z,3.69
2023-02-22T06:50:58.325Z,3.73
2023-02-22T06:52:00.313Z,3.73
2023-02-22T06:53:02.185Z,3.76
2023-02-22T06:54:04.983Z,3.80
2023-02-22T06:55:06.937Z,3.78
2023-02-22T06:56:08.806Z,3.79
2023-02-22T06:57:10.721Z,3.83
2023-02-22T06:58:12.590Z,3.88
2023-02-22T06:59:14.515Z,3.90
2023-02-22T07:00:18.045Z,3.87
2023-02-22T07:01:20.167Z,3.80
2023-02-22T07:02:22.338Z,3.83
2023-02-22T07:03:24.314Z,3.86
2023-02-22T07:04:26.336Z,3.90
2023-02-22T07:05:28.510Z,3.96
2023-02-22T07:06:30.366Z,4.00
2023-02-22T07:07:32.287Z,3.94
2023-02-22T07:08:34.241Z,3.86
2023-02-22T07:09:36.186Z,3.86
2023-02-22T07:10:38.628Z,3.90
2023-02-22T07:11:40.694Z,3.95
2023-02-22T07:12:42.552Z,3.99
2023-02-22T07:13:44.502Z,3.97
2023-02-22T07:14:46.431Z,3.93
2023-02-22T07:15:48.413Z,3.95
2023-02-22T07:16:50.233Z,3.94
2023-02-22T07:17:52.668Z,3.92
2023-02-22T07:18:54.538Z,3.94
2023-02-22T07:19:56.447Z,3.96
2023-02-22T07:20:58.967Z,3.97
2023-02-22T07:22:00.912Z,3.95
2023-02-22T07:23:02.848Z,3.96
2023-02-22T07:24:05.561Z,4.02
2023-02-22T07:25:10.222Z,4.07
2023-02-22T07:26:12.558Z,4.13
2023-02-22T07:27:14.434Z,4.18
2023-02-22T07:28:16.369Z,4.24
2023-02-22T07:29:18.219Z,4.18
2023-02-22T07:30:31.311Z,4.23
2023-02-22T07:31:38.821Z,4.27
2023-02-22T07:32:42.560Z,4.26
2023-02-22T07:33:46.157Z,4.23
2023-02-22T07:34:48.134Z,4.24
2023-02-22T07:35:50.730Z,4.28
2023-02-22T07:36:52.554Z,4.32
2023-02-22T07:37:56.084Z,4.37
2023-02-22T07:38:58.270Z,4.40
2023-02-22T07:40:00.167Z,4.44
2023-02-22T07:41:02.113Z,4.44
2023-02-22T07:42:04.255Z,4.40
2023-02-22T07:43:16.084Z,4.39
2023-02-22T07:44:18.073Z,4.38
2023-02-22T07:45:20.425Z,4.42
2023-02-22T07:46:22.275Z,4.46
2023-02-22T07:47:24.104Z,4.46
2023-02-22T07:48:27.475Z,4.45
2023-02-22T07:49:29.466Z,4.44
2023-02-22T07:50:32.514Z,4.43
2023-02-22T07:51:34.412Z,4.43
2023-02-22T07:52:37.225Z,4.44
2023-02-22T07:53:39.056Z,4.50
2023-02-22T07:54:41.069Z,4.52
2023-02-22T07:55:43.879Z,4.55
2023-02-22T07:56:48.994Z,4.58
2023-02-22T07:57:51.579Z,4.61
2023-02-22T07:58:53.496Z,4.69
2023-02-22T07:59:55.905Z,4.73
2023-02-22T08:00:58.149Z,4.78
2023-02-22T08:02:00.104Z,4.85
2023-02-22T08:03:02.737Z,4.92
2023-02-22T08:04:04.727Z,4.97
2023-02-22T08:05:07.468Z,5.00
2023-02-22T08:06:10.006Z,5.04
2023-02-22T08:07:11.872Z,5.10
2023-02-22T08:08:17.758Z,5.16
2023-02-22T08:09:21.318Z,5.21
2023-02-22T08:10:24.304Z,5.24
2023-02-22T08:11:26.616Z,5.26
2023-02-22T08:12:28.501Z,5.28
2023-02-22T08:13:30.301Z,5.30
2023-02-22T08:14:32.304Z,5.36
2023-02-22T08:15:35.505Z,5.38
2023-02-22T08:16:37.494Z,5.44
2023-02-22T08:17:39.273Z,5.52
2023-02-22T08:18:41.363Z,5.61
2023-02-22T08:19:43.218Z,5.71
2023-02-22T08:20:46.266Z,5.77
2023-02-22T08:21:48.121Z,5.79
2023-02-22T08:22:50.379Z,5.75
2023-02-22T08:23:54.558Z,5.72
2023-02-22T08:24:56.552Z,5.80
2023-02-22T08:26:04.375Z,5.84
2023-02-22T08:27:06.601Z,5.92
2023-02-22T08:28:10.229Z,6.04
2023-02-22T08:29:12.121Z,6.13
2023-02-22T08:30:15.388Z,6.21
2023-02-22T08:31:17.525Z,6.26
2023-02-22T08:32:19.714Z,6.28
2023-02-22T08:33:21.949Z,6.29
2023-02-22T08:34:25.104Z,6.31
2023-02-22T08:35:27.876Z,6.36
2023-02-22T08:36:30.765Z,6.44
2023-02-22T08:37:32.562Z,6.46
2023-02-22T08:38:35.305Z,6.51
2023-02-22T08:39:37.520Z,6.51
2023-02-22T08:40:39.762Z,6.55
2023-02-22T08:41:41.625Z,6.58
2023-02-22T08:42:43.927Z,6.60
2023-02-22T08:43:45.899Z,6.61
2023-02-22T08:44:47.757Z,6.63
2023-02-22T08:45:50.412Z,6.65
2023-02-22T08:46:52.230Z,6.67
2023-02-22T08:47:54.383Z,6.72
2023-02-22T08:48:56.325Z,6.77
2023-02-22T08:49:58.152Z,6.82
2023-02-22T08:50:59.976Z,6.84
2023-02-22T08:52:01.823Z,6.87
2023-02-22T08:53:05.262Z,6.92
2023-02-22T08:54:07.638Z,7.03
2023-02-22T08:55:09.459Z,7.11
2023-02-22T08:56:11.496Z,7.18
2023-02-22T08:57:13.422Z,7.27
2023-02-22T08:58:15.306Z,7.33
2023-02-22T08:59:17.649Z,7.37
2023-02-22T09:00:20.175Z,7.39
2023-02-22T09:01:32.686Z,7.42
2023-02-22T09:02:35.062Z,7.48
2023-02-22T09:03:36.968Z,7.54
2023-02-22T09:04:38.825Z,7.61
2023-02-22T09:05:41.376Z,7.65
2023-02-22T09:06:44.303Z,7.71
2023-02-22T09:07:46.337Z,7.76
2023-02-22T09:08:48.362Z,7.79
2023-02-22T09:09:50.215Z,7.85
2023-02-22T09:10:52.111Z,7.88
2023-02-22T09:11:53.962Z,7.96
2023-02-22T09:12:56.053Z,8.05
2023-02-22T09:13:57.892Z,8.12
2023-02-22T09:14:59.676Z,8.19
2023-02-22T09:16:01.556Z,8.28
2023-02-22T09:17:05.660Z,8.38
2023-02-22T09:18:11.522Z,8.46
2023-02-22T09:19:13.346Z,8.50
2023-02-22T09:20:18.105Z,8.55
2023-02-22T09:21:19.986Z,8.56
2023-02-22T09:22:21.849Z,8.54
2023-02-22T09:23:24.240Z,8.63
2023-02-22T09:24:26.375Z,8.72
2023-02-22T09:25:28.229Z,8.81
2023-02-22T09:26:30.080Z,8.81
2023-02-22T09:27:32.047Z,8.79
2023-02-22T09:28:33.891Z,8.88
2023-02-22T09:29:35.970Z,8.93
2023-02-22T09:30:38.112Z,8.97
2023-02-22T09:31:41.050Z,9.04
2023-02-22T09:32:43.173Z,9.10
2023-02-22T09:33:47.354Z,9.15
2023-02-22T09:34:49.412Z,9.24
2023-02-22T09:35:51.343Z,9.29
2023-02-22T09:36:53.206Z,9.21
2023-02-22T09:37:59.288Z,9.17
2023-02-22T09:39:01.277Z,9.22
2023-02-22T09:40:03.753Z,9.29
2023-02-22T09:41:20.001Z,9.37
2023-02-22T09:42:33.937Z,9.40
2023-02-22T09:43:48.006Z,9.45
2023-02-22T09:44:55.385Z,9.56
2023-02-22T09:46:13.756Z,9.69
2023-02-22T09:47:18.574Z,9.77
2023-02-22T09:48:22.298Z,9.88
2023-02-22T09:49:28.256Z,9.96
2023-02-22T09:50:35.871Z,10.04
2023-02-22T09:51:43.901Z,10.13
2023-02-22T09:52:49.120Z,10.20
2023-02-22T09:53:52.693Z,10.25
2023-02-22T09:55:08.712Z,10.36
2023-02-22T09:56:12.414Z,10.44
2023-02-22T09:57:28.131Z,10.51
2023-02-22T09:58:33.980Z,10.64
2023-02-22T09:59:39.721Z,10.76
2023-02-22T10:00:44.526Z,10.80
2023-02-22T10:01:48.890Z,10.78
2023-02-22T10:03:09.395Z,10.78
2023-02-22T10:04:11.130Z,10.83
2023-02-22T10:05:34.051Z,10.95
2023-02-22T10:06:37.359Z,11.10
2023-02-22T10:07:47.056Z,11.05
2023-02-22T10:08:50.459Z,11.15
2023-02-22T10:09:56.842Z,11.28
2023-02-22T10:11:18.868Z,11.40
2023-02-22T10:12:20.787Z,11.37
2023-02-22T10:13:42.403Z,11.46
2023-02-22T10:15:02.700Z,11.50
2023-02-22T10:16:17.007Z,11.63
2023-02-22T10:17:45.428Z,11.82
2023-02-22T10:18:48.247Z,11.94
2023-02-22T10:20:08.594Z,12.04
2023-02-22T10:21:13.621Z,12.06
2023-02-22T10:22:28.303Z,12.11
2023-02-22T10:23:45.541Z,12.07
2023-02-22T10:25:01.614Z,12.21
2023-02-22T10:26:15.263Z,12.32
2023-02-22T10:27:22.666Z,12.49
2023-02-22T10:28:31.234Z,12.59
2023-02-22T10:29:37.793Z,12.74
2023-02-22T10:31:05.858Z,12.85
2023-02-22T10:32:12.550Z,12.99
2023-02-22T10:33:17.579Z,13.07
2023-02-22T10:34:25.053Z,13.06
2023-02-22T10:35:33.342Z,13.16
2023-02-22T10:36:39.416Z,13.13
2023-02-22T10:37:41.332Z,13.01
2023-02-22T10:38:49.000Z,13.13
2023-02-22T10:39:53.225Z,13.30
2023-02-22T10:41:01.252Z,13.39
2023-02-22T10:42:08.526Z,13.51
2023-02-22T10:43:12.074Z,13.60
2023-02-22T10:44:13.913Z,13.68
2023-02-22T10:45:32.995Z,13.74
2023-02-22T10:46:34.979Z,13.84
2023-02-22T10:47:38.008Z,13.95
2023-02-22T10:48:41.886Z,14.08
2023-02-22T10:49:46.592Z,14.18
2023-02-22T10:50:48.862Z,14.29
2023-02-22T10:51:59.948Z,14.38
2023-02-22T10:53:01.857Z,14.41
2023-02-22T10:54:20.287Z,14.49
2023-02-22T10:55:22.597Z,14.60
2023-02-22T10:56:25.716Z,14.74
2023-02-22T10:57:32.799Z,14.91
2023-02-22T10:58:43.842Z,15.10
2023-02-22T10:59:45.708Z,15.22
2023-02-22T11:00:47.637Z,15.30
2023-02-22T11:01:50.254Z,15.33
2023-02-22T11:02:54.234Z,15.34
2023-02-22T11:04:02.221Z,15.45
2023-02-22T11:05:05.122Z,15.51
2023-02-22T11:06:19.849Z,15.57
2023-02-22T11:07:27.708Z,15.72
2023-02-22T11:08:31.334Z,15.77
2023-02-22T11:09:45.506Z,15.71
2023-02-22T11:10:48.527Z,15.58
2023-02-22T11:11:51.802Z,15.61
2023-02-22T11:12:54.003Z,15.71
2023-02-22T11:13:56.722Z,15.85
2023-02-22T11:15:24.588Z,15.94
2023-02-22T11:16:34.952Z,15.95
2023-02-22T11:17:36.863Z,15.99
2023-02-22T11:18:38.913Z,15.96
2023-02-22T11:19:46.571Z,15.89
2023-02-22T11:20:48.465Z,15.84
2023-02-22T11:21:54.524Z,15.86
2023-02-22T11:22:58.621Z,15.89
2023-02-22T11:24:05.130Z,15.88
2023-02-22T11:25:08.204Z,15.95
2023-02-22T11:26:14.994Z,16.03
2023-02-22T11:27:40.205Z,16.02
2023-02-22T11:28:49.736Z,16.05
2023-02-22T11:29:52.048Z,16.18
2023-02-22T11:30:54.051Z,16.28
2023-02-22T11:31:56.514Z,16.35
2023-02-22T11:33:13.729Z,16.57
2023-02-22T11:34:27.369Z,16.77
2023-02-22T11:35:29.175Z,16.72
2023-02-22T11:36:33.190Z,16.78
2023-02-22T11:37:39.283Z,16.85
2023-02-22T11:38:53.549Z,16.90
2023-02-22T11:40:06.272Z,17.03
2023-02-22T11:41:26.664Z,17.13
2023-02-22T11:42:28.774Z,17.31
2023-02-22T11:43:31.582Z,17.44
2023-02-22T11:44:33.465Z,17.44
2023-02-22T11:45:35.599Z,17.39
2023-02-22T11:46:37.797Z,17.42
2023-02-22T11:47:56.635Z,17.44
2023-02-22T11:49:01.063Z,17.51
2023-02-22T11:50:11.131Z,17.53
2023-02-22T11:51:14.492Z,17.52
2023-02-22T11:52:28.604Z,17.53
2023-02-22T11:53:49.062Z,17.51
2023-02-22T11:54:59.926Z,17.60
2023-02-22T11:56:28.453Z,17.83
2023-02-22T11:57:41.807Z,17.88
2023-02-22T11:58:50.003Z,17.94
2023-02-22T12:00:12.634Z,18.05
2023-02-22T12:01:23.814Z,18.13
2023-02-22T12:02:37.468Z,18.21
2023-02-22T12:03:46.633Z,18.25
2023-02-22T12:04:54.493Z,18.22
2023-02-22T12:06:15.590Z,18.23
2023-02-22T12:07:17.543Z,18.26
2023-02-22T12:08:30.166Z,18.29
2023-02-22T12:09:58.604Z,18.55
2023-02-22T12:11:10.500Z,18.70
2023-02-22T12:12:27.523Z,18.90
2023-02-22T12:13:36.966Z,18.95
2023-02-22T12:14:54.960Z,18.93
2023-02-22T12:15:59.908Z,18.83
2023-02-22T12:17:23.712Z,18.85
2023-02-22T12:18:56.677Z,19.10
2023-02-22T12:20:07.252Z,19.47
2023-02-22T12:21:16.925Z,19.67
2023-02-22T12:22:22.939Z,19.59
2023-02-22T12:23:45.096Z,19.39
2023-02-22T12:24:55.334Z,19.26
2023-02-22T12:26:03.672Z,19.22
2023-02-22T12:27:18.076Z,19.24
2023-02-22T12:28:24.982Z,19.25
2023-02-22T12:29:48.515Z,19.36
2023-02-22T12:30:56.410Z,19.31
2023-02-22T12:31:58.323Z,19.26
2023-02-22T12:33:04.763Z,19.25
2023-02-22T12:34:08.322Z,19.28
2023-02-22T12:35:10.229Z,19.31
2023-02-22T12:36:15.632Z,19.35
2023-02-22T12:37:17.570Z,19.41
2023-02-22T12:38:23.665Z,19.44
2023-02-22T12:39:25.665Z,19.57
2023-02-22T12:40:35.966Z,19.78
2023-02-22T12:41:46.193Z,19.88
2023-02-22T12:42:55.905Z,19.83
2023-02-22T12:44:04.772Z,19.90
2023-02-22T12:45:17.144Z,19.93
2023-02-22T12:46:19.367Z,19.94
2023-02-22T12:47:25.012Z,19.76
2023-02-22T12:48:52.072Z,19.56
2023-02-22T12:49:57.020Z,19.43
2023-02-22T12:51:02.950Z,19.35
2023-02-22T12:52:21.736Z,19.34
2023-02-22T12:53:31.530Z,19.31
2023-02-22T12:54:45.638Z,19.27
2023-02-22T12:55:59.348Z,19.26
2023-02-22T12:57:03.504Z,19.34
2023-02-22T12:58:14.730Z,19.49
2023-02-22T12:59:16.521Z,19.51
2023-02-22T13:00:26.608Z,19.48
2023-02-22T13:01:33.067Z,19.49
2023-02-22T13:02:34.904Z,19.48
2023-02-22T13:03:41.053Z,19.47
2023-02-22T13:04:42.949Z,19.41
2023-02-22T13:05:49.383Z,19.48
2023-02-22T13:07:01.131Z,19.54
2023-02-22T13:08:12.014Z,19.54
2023-02-22T13:09:23.610Z,19.61
2023-02-22T13:10:39.749Z,19.76
2023-02-22T13:11:47.745Z,19.92
2023-02-22T13:12:59.228Z,20.05
2023-02-22T13:14:12.681Z,20.08
2023-02-22T13:15:23.362Z,20.21
2023-02-22T13:16:31.525Z,20.31
2023-02-22T13:17:48.692Z,20.38
2023-02-22T13:19:04.449Z,20.43
2023-02-22T13:20:14.758Z,20.44
2023-02-22T13:21:31.622Z,20.55
2023-02-22T13:22:36.520Z,20.69
2023-02-22T13:23:39.259Z,20.77
2023-02-22T13:24:59.919Z,20.80
2023-02-22T13:26:08.745Z,20.78
2023-02-22T13:27:14.983Z,20.85
2023-02-22T13:28:22.076Z,20.87
2023-02-22T13:29:29.008Z,20.85
2023-02-22T13:30:42.210Z,20.88
2023-02-22T13:31:50.643Z,20.85
2023-02-22T13:32:52.650Z,20.92
2023-02-22T13:33:54.404Z,20.89
2023-02-22T13:35:06.351Z,20.92
2023-02-22T13:36:08.208Z,20.92
2023-02-22T13:37:12.988Z,20.83
2023-02-22T13:38:17.602Z,20.82
2023-02-22T13:39:41.269Z,20.84
2023-02-22T13:40:46.193Z,20.87
2023-02-22T13:41:51.925Z,20.94
2023-02-22T13:43:08.985Z,21.01
2023-02-22T13:44:14.122Z,20.95
2023-02-22T13:45:35.350Z,20.94
2023-02-22T13:46:55.980Z,20.99
2023-02-22T13:48:00.842Z,20.96
2023-02-22T13:49:18.768Z,20.97
2023-02-22T13:50:39.059Z,21.05
2023-02-22T13:51:50.860Z,21.05
2023-02-22T13:52:54.826Z,21.00
2023-02-22T13:54:00.404Z,21.05
2023-02-22T13:55:05.352Z,21.10
2023-02-22T13:56:07.428Z,21.16
2023-02-22T13:57:20.482Z,21.14
2023-02-22T13:58:22.438Z,21.18
2023-02-22T13:59:33.787Z,21.18
2023-02-22T14:00:41.295Z,21.05
2023-02-22T14:01:48.186Z,21.16
2023-02-22T14:03:30.256Z,21.30
2023-02-22T14:04:32.123Z,21.63
2023-02-22T14:05:41.536Z,21.78
2023-02-22T14:06:44.192Z,21.84
2023-02-22T14:07:47.620Z,21.62
2023-02-22T14:08:49.502Z,21.48
2023-02-22T14:09:56.388Z,21.23
2023-02-22T14:11:01.758Z,21.18
2023-02-22T14:12:03.705Z,21.34
2023-02-22T14:13:06.401Z,21.34
2023-02-22T14:14:08.182Z,21.19
2023-02-22T14:15:18.786Z,21.14
2023-02-22T14:16:31.379Z,21.21
2023-02-22T14:17:33.460Z,21.03
2023-02-22T14:18:38.982Z,21.19
2023-02-22T14:19:40.754Z,21.35
2023-02-22T14:20:43.441Z,21.51
2023-02-22T14:21:57.357Z,21.69
2023-02-22T14:23:19.230Z,21.75
2023-02-22T14:24:21.216Z,21.76